createdAt,value
2017-12-02T00:00:12.162Z,27.05
2017-12-02T00:02:40.227Z,27.70
2017-12-02T00:05:08.572Z,26.55
2017-12-02T00:07:37.203Z,29.17
2017-12-02T00:10:05.556Z,27.87
2017-12-02T00:12:33.895Z,28.62
2017-12-02T00:15:02.259Z,28.73
2017-12-02T00:17:30.607Z,27.45
2017-12-02T00:19:59.003Z,26.55
2017-12-02T00:22:27.346Z,27.60
2017-12-02T00:24:55.690Z,26.92
2017-12-02T00:27:24.046Z,26.77
2017-12-02T00:29:52.398Z,28.45
2017-12-02T00:32:20.769Z,30.88
2017-12-02T00:34:49.110Z,29.55
2017-12-02T00:37:17.471Z,28.95
2017-12-02T00:39:45.817Z,25.92
2017-12-02T00:42:14.190Z,27.33
2017-12-02T00:44:42.538Z,26.70
2017-12-02T00:47:10.887Z,27.70
2017-12-02T00:49:39.240Z,27.62
2017-12-02T00:52:07.620Z,26.37
2017-12-02T00:54:35.967Z,27.52
2017-12-02T00:57:04.323Z,25.35
2017-12-02T00:59:32.673Z,25.85
2017-12-02T01:02:01.026Z,28.70
2017-12-02T01:04:29.400Z,27.05
2017-12-02T01:06:57.750Z,26.73
2017-12-02T01:09:26.103Z,25.50
2017-12-02T01:11:54.462Z,24.90
2017-12-02T01:14:22.805Z,25.50
2017-12-02T01:16:51.180Z,25.88
2017-12-02T01:19:19.523Z,24.60
2017-12-02T01:21:47.878Z,27.08
2017-12-02T01:24:16.223Z,24.80
2017-12-02T01:26:44.569Z,24.87
2017-12-02T01:29:12.948Z,25.37
2017-12-02T01:31:41.286Z,24.50
2017-12-02T01:34:09.642Z,24.58
2017-12-02T01:36:37.981Z,24.60
2017-12-02T01:39:06.323Z,26.12
2017-12-02T01:41:34.707Z,24.70
2017-12-02T01:44:03.095Z,27.40
2017-12-02T01:46:31.442Z,27.20
2017-12-02T01:48:59.822Z,27.02
2017-12-02T01:51:28.187Z,24.85
2017-12-02T01:53:56.539Z,23.12
2017-12-02T01:56:24.892Z,25.62
2017-12-02T01:58:53.238Z,24.33
2017-12-02T02:01:21.623Z,24.60
2017-12-02T02:03:49.962Z,26.08
2017-12-02T02:06:18.312Z,25.58
2017-12-02T02:08:46.655Z,24.05
2017-12-02T02:11:14.994Z,24.42
2017-12-02T02:13:43.546Z,24.35
2017-12-02T02:16:11.894Z,24.73
2017-12-02T02:18:40.235Z,26.52
2017-12-02T02:21:08.585Z,24.20
2017-12-02T02:23:36.930Z,25.45
2017-12-02T02:26:05.301Z,22.90
2017-12-02T02:28:33.651Z,22.60
2017-12-02T02:31:01.995Z,18.42
2017-12-02T02:33:30.339Z,20.05
2017-12-02T02:35:58.687Z,19.30
2017-12-02T02:38:27.398Z,21.48
2017-12-02T02:40:56.172Z,21.37
2017-12-02T02:43:24.896Z,21.67
2017-12-02T02:45:53.532Z,22.45
2017-12-02T02:48:22.158Z,23.60
2017-12-02T02:50:51.103Z,21.98
2017-12-02T02:53:22.427Z,23.52
2017-12-02T02:55:51.415Z,22.05
2017-12-02T02:58:20.667Z,22.92
2017-12-02T03:00:49.324Z,23.90
2017-12-02T03:03:17.849Z,23.85
2017-12-02T03:05:46.215Z,22.55
2017-12-02T03:08:14.690Z,23.60
2017-12-02T03:10:43.031Z,24.70
2017-12-02T03:13:11.383Z,24.12
2017-12-02T03:15:39.731Z,23.98
2017-12-02T03:18:08.085Z,23.25
2017-12-02T03:20:36.559Z,22.77
2017-12-02T03:23:04.908Z,22.70
2017-12-02T03:25:33.255Z,23.48
2017-12-02T03:28:01.604Z,23.67
2017-12-02T03:30:29.947Z,23.92
2017-12-02T03:32:58.326Z,25.50
2017-12-02T03:35:26.679Z,23.45
2017-12-02T03:37:55.022Z,23.55
2017-12-02T03:40:23.367Z,25.27
2017-12-02T03:42:51.743Z,26.02
2017-12-02T03:45:20.103Z,25.50
2017-12-02T03:47:48.447Z,24.40
2017-12-02T03:50:16.799Z,25.83
2017-12-02T03:52:45.142Z,25.88
2017-12-02T03:55:13.692Z,26.80
2017-12-02T03:57:42.044Z,27.67
2017-12-02T04:00:30.773Z,26.05
2017-12-02T04:02:59.130Z,27.70
2017-12-02T04:05:27.510Z,26.85
2017-12-02T04:07:55.858Z,24.37
2017-12-02T04:10:24.206Z,26.42
2017-12-02T04:12:52.555Z,25.95
2017-12-02T04:15:20.910Z,28.48
2017-12-02T04:17:49.322Z,29.00
2017-12-02T04:20:17.673Z,26.77
2017-12-02T04:22:46.018Z,26.67
2017-12-02T04:25:14.370Z,28.45
2017-12-02T04:27:42.715Z,27.42
2017-12-02T04:30:11.073Z,25.65
2017-12-02T04:32:39.419Z,27.55
2017-12-02T04:35:07.950Z,27.48
2017-12-02T04:37:36.298Z,29.73
2017-12-02T04:40:04.647Z,25.10
2017-12-02T04:42:32.992Z,25.75
2017-12-02T04:45:01.344Z,24.15
2017-12-02T04:47:29.717Z,25.15
2017-12-02T04:49:58.071Z,22.83
2017-12-02T04:52:26.414Z,23.27
2017-12-02T04:54:54.763Z,23.30
2017-12-02T04:57:23.117Z,22.83
2017-12-02T04:59:51.545Z,22.20
2017-12-02T05:02:19.866Z,23.08
2017-12-02T05:04:48.210Z,20.70
2017-12-02T05:07:16.564Z,23.95
2017-12-02T05:09:44.908Z,23.62
2017-12-02T05:12:13.251Z,26.65
2017-12-02T05:14:41.636Z,27.13
2017-12-02T05:17:09.976Z,27.62
2017-12-02T05:19:38.333Z,30.50
2017-12-02T05:22:06.685Z,30.50
2017-12-02T05:24:35.032Z,32.72
2017-12-02T05:27:03.422Z,32.47
2017-12-02T05:29:31.777Z,28.30
2017-12-02T05:32:00.114Z,27.35
2017-12-02T05:34:28.467Z,29.90
2017-12-02T05:36:56.810Z,27.98
2017-12-02T05:39:25.300Z,28.00
2017-12-02T05:41:53.646Z,30.30
2017-12-02T05:44:21.990Z,27.13
2017-12-02T05:46:50.348Z,26.20
2017-12-02T05:49:18.691Z,25.70
2017-12-02T05:51:47.078Z,25.00
2017-12-02T05:54:15.427Z,26.05
2017-12-02T05:56:43.773Z,24.77
2017-12-02T05:59:12.109Z,23.98
2017-12-02T06:01:40.469Z,27.17
2017-12-02T06:04:08.844Z,25.92
2017-12-02T06:06:37.182Z,24.50
2017-12-02T06:09:05.531Z,25.77
2017-12-02T06:11:33.883Z,26.65
2017-12-02T06:14:02.226Z,24.40
2017-12-02T06:16:30.624Z,24.92
2017-12-02T06:18:58.982Z,24.77
2017-12-02T06:21:27.326Z,23.95
2017-12-02T06:23:55.671Z,24.10
2017-12-02T06:26:24.028Z,24.63
2017-12-02T06:28:52.462Z,25.35
2017-12-02T06:31:20.807Z,25.50
2017-12-02T06:33:49.159Z,25.00
2017-12-02T06:36:17.531Z,26.30
2017-12-02T06:38:45.874Z,25.40
2017-12-02T06:41:14.355Z,24.17
2017-12-02T06:43:42.702Z,23.52
2017-12-02T06:46:11.051Z,23.15
2017-12-02T06:48:39.396Z,21.65
2017-12-02T06:51:07.745Z,22.60
2017-12-02T06:53:36.120Z,20.85
2017-12-02T06:56:04.472Z,21.65
2017-12-02T06:58:32.822Z,23.10
2017-12-02T07:01:01.176Z,24.20
2017-12-02T07:03:29.531Z,28.23
2017-12-02T07:05:57.914Z,25.10
2017-12-02T07:08:26.259Z,25.95
2017-12-02T07:10:54.616Z,26.20
2017-12-02T07:13:22.991Z,26.55
2017-12-02T07:15:51.339Z,27.10
2017-12-02T07:18:19.693Z,28.25
2017-12-02T07:20:48.034Z,27.58
2017-12-02T07:23:16.395Z,26.80
2017-12-02T07:25:44.881Z,25.58
2017-12-02T07:28:13.236Z,29.05
2017-12-02T07:30:41.577Z,25.02
2017-12-02T07:33:09.922Z,25.65
2017-12-02T07:35:38.287Z,27.00
2017-12-02T07:38:06.666Z,28.75
2017-12-02T07:40:35.017Z,25.40
2017-12-02T07:43:03.366Z,28.45
2017-12-02T07:45:31.713Z,26.98
2017-12-02T07:48:00.062Z,26.50
2017-12-02T07:50:28.455Z,23.67
2017-12-02T07:52:56.800Z,21.85
2017-12-02T07:55:25.175Z,17.77
2017-12-02T07:57:53.528Z,19.08
2017-12-02T08:00:21.888Z,15.65
2017-12-02T08:02:50.279Z,18.20
2017-12-02T08:05:18.637Z,17.37
2017-12-02T08:07:46.981Z,17.33
2017-12-02T08:10:15.324Z,16.37
2017-12-02T08:12:43.672Z,18.73
2017-12-02T08:15:12.042Z,15.13
2017-12-02T08:17:40.387Z,14.40
2017-12-02T08:20:09.434Z,15.43
2017-12-02T08:22:37.795Z,12.98
2017-12-02T08:25:06.151Z,14.45
2017-12-02T08:27:34.532Z,15.10
2017-12-02T08:30:02.879Z,14.15
2017-12-02T08:32:31.223Z,15.23
2017-12-02T08:34:59.583Z,16.98
2017-12-02T08:37:27.936Z,15.77
2017-12-02T08:39:56.316Z,13.65
2017-12-02T08:42:24.663Z,16.85
2017-12-02T08:44:53.013Z,17.02
2017-12-02T08:47:21.357Z,17.08
2017-12-02T08:49:49.706Z,19.35
2017-12-02T08:52:18.092Z,19.48
2017-12-02T08:54:46.486Z,18.37
2017-12-02T08:57:14.835Z,16.90
2017-12-02T08:59:43.184Z,17.85
2017-12-02T09:02:11.527Z,18.70
2017-12-02T09:04:39.912Z,17.12
2017-12-02T09:07:08.262Z,14.48
2017-12-02T09:09:36.634Z,13.20
2017-12-02T09:12:04.977Z,13.80
2017-12-02T09:14:33.327Z,12.73
2017-12-02T09:17:01.686Z,13.57
2017-12-02T09:19:30.071Z,12.00
2017-12-02T09:21:58.433Z,10.57
2017-12-02T09:24:26.789Z,10.33
2017-12-02T09:26:55.176Z,10.13
2017-12-02T09:29:23.532Z,10.07
2017-12-02T09:31:51.897Z,10.03
2017-12-02T09:34:20.237Z,9.00
2017-12-02T09:36:48.574Z,8.83
2017-12-02T09:39:16.916Z,10.57
2017-12-02T09:41:45.260Z,12.20
2017-12-02T09:44:13.602Z,11.40
2017-12-02T09:46:41.950Z,12.50
2017-12-02T09:49:10.314Z,12.88
2017-12-02T09:51:38.650Z,11.00
2017-12-02T09:54:07.755Z,11.60
2017-12-02T09:56:36.113Z,11.68
2017-12-02T09:59:04.463Z,13.05
2017-12-02T10:01:32.819Z,13.80
2017-12-02T10:04:01.184Z,15.90
2017-12-02T10:06:29.530Z,13.82
2017-12-02T10:08:57.883Z,13.55
2017-12-02T10:11:26.247Z,12.98
2017-12-02T10:13:54.603Z,14.00
2017-12-02T10:16:22.966Z,12.57
2017-12-02T10:18:51.314Z,12.07
2017-12-02T10:21:19.687Z,23.20
2017-12-02T10:23:48.047Z,14.73
2017-12-02T10:26:16.399Z,13.20
2017-12-02T10:28:44.752Z,11.48
2017-12-02T10:31:13.104Z,13.20
2017-12-02T10:33:41.454Z,12.20
2017-12-02T10:36:09.807Z,12.77
2017-12-02T10:38:38.154Z,14.23
2017-12-02T10:41:06.522Z,13.80
2017-12-02T10:43:34.890Z,12.07
2017-12-02T10:46:03.248Z,11.90
2017-12-02T10:48:31.636Z,9.35
2017-12-02T10:50:59.996Z,11.38
2017-12-02T10:53:28.367Z,10.85
2017-12-02T10:55:56.753Z,9.90
2017-12-02T10:58:25.103Z,9.63
2017-12-02T11:00:53.458Z,10.33
2017-12-02T11:03:21.839Z,10.05
2017-12-02T11:05:50.186Z,8.60
2017-12-02T11:08:18.539Z,8.20
2017-12-02T11:10:46.919Z,9.45
2017-12-02T11:13:15.274Z,9.30
2017-12-02T11:15:43.628Z,8.98
2017-12-02T11:18:12.009Z,9.02
2017-12-02T11:20:40.361Z,10.15
2017-12-02T11:23:08.711Z,9.70
2017-12-02T11:25:37.106Z,10.25
2017-12-02T11:28:05.466Z,8.27
2017-12-02T11:30:33.829Z,7.37
2017-12-02T11:33:02.212Z,8.25
2017-12-02T11:35:30.554Z,6.97
2017-12-02T11:37:59.108Z,7.93
2017-12-02T11:40:27.541Z,7.57
2017-12-02T11:42:55.888Z,6.97
2017-12-02T11:45:24.232Z,7.43
2017-12-02T11:47:52.580Z,7.05
2017-12-02T11:50:20.930Z,7.10
2017-12-02T11:55:23.879Z,7.53
2017-12-02T11:57:52.235Z,9.50
2017-12-02T12:00:20.580Z,9.03
2017-12-02T12:02:48.928Z,8.73
2017-12-02T12:05:17.280Z,11.20
2017-12-02T12:07:45.623Z,8.67
2017-12-02T12:10:13.967Z,9.07
2017-12-02T12:12:42.302Z,10.60
2017-12-02T12:15:10.656Z,10.80
2017-12-02T12:17:39.000Z,9.13
2017-12-02T12:20:07.346Z,10.80
2017-12-02T12:22:35.695Z,9.67
2017-12-02T12:25:04.035Z,9.80
2017-12-02T12:27:32.377Z,10.60
2017-12-02T12:30:00.724Z,11.00
2017-12-02T12:32:29.074Z,10.20
2017-12-02T12:34:57.439Z,10.73
2017-12-02T12:37:25.796Z,10.85
2017-12-02T12:39:54.154Z,10.18
2017-12-02T12:42:22.515Z,10.25
2017-12-02T12:44:50.878Z,11.12
2017-12-02T12:47:19.233Z,9.32
2017-12-02T12:49:47.576Z,9.30
2017-12-02T12:52:15.919Z,9.30
2017-12-02T12:54:44.267Z,10.43
2017-12-02T12:57:12.744Z,9.55
2017-12-02T12:59:41.099Z,9.68
2017-12-02T13:02:09.454Z,8.45
2017-12-02T13:04:37.819Z,9.17
2017-12-02T13:07:06.186Z,8.83
2017-12-02T13:09:34.542Z,8.13
2017-12-02T13:12:02.914Z,7.60
2017-12-02T13:14:31.316Z,9.00
2017-12-02T13:16:59.647Z,11.30
